Stations météo

réclame
Mon MeteoGroup
Mumbles, Grande-Bretagne (3609): Température de l'air & dewpoint: 21.05.2018 06:00:00 - 27.05.2018 06:00:00 (BST)Mumbles, Grande-Bretagne (3609): Vitesse du vent & gusts: 21.05.2018 06:00:00 - 27.05.2018 06:00:00 (BST)Mumbles, Grande-Bretagne (3609): Direction du vent: 21.05.2018 06:00:00 - 27.05.2018 06:00:00 (BST)Mumbles, Grande-Bretagne (3609): reduced air pressure: 21.05.2018 06:00:00 - 27.05.2018 06:00:00 (BST)Mumbles, Grande-Bretagne (3609): Quantités de précipitations: 21.05.2018 06:00:00 - 27.05.2018 06:00:00 (BST)
Date & Time tt [°C] td [°C] ff [km/h] ff [knt] fx [km/h] fx [knt] dd ppp [hPa] rr [mm]
27.05.2018 06:00:00 16,4 12,8 31 17 - - ENE 1014,3 0,0
27.05.2018 05:00:00 16,7 12,6 29 16 - - ENE 1013,9 0,0
27.05.2018 04:00:00 17,6 11,9 26 14 - - NNE 1014,0 0,0
27.05.2018 03:00:00 17,6 12,5 24 13 - - NE 1013,9 0,0
27.05.2018 02:00:00 18,2 12,6 24 13 46 25 NNE 1014,3 0,0
27.05.2018 01:00:00 17,8 13,1 22 12 - - NE 1015,4 0,0
27.05.2018 00:00:00 18,4 13,2 34 18 48 26 NE 1015,3 0,0
26.05.2018 23:00:00 18,1 13,4 37 20 54 29 NE 1015,7 0,6
26.05.2018 22:00:00 19,7 14,5 35 19 50 27 NE 1016,1 0,0
26.05.2018 21:00:00 20,3 15,3 39 21 61 33 NE 1015,4 0,0
26.05.2018 20:00:00 20,7 15,4 35 19 50 27 NE 1015,7 0,0
26.05.2018 19:00:00 21,2 15,9 34 18 48 26 NE 1016,0 0,0
26.05.2018 18:00:00 20,2 15,2 21 11 - - NE 1016,8 0,0
26.05.2018 17:00:00 19,3 14,8 11 6 - - NNE 1017,6 0,0
26.05.2018 16:00:00 14,9 13,1 9 5 46 25 S 1018,5 0,0
26.05.2018 15:00:00 19,4 14,5 28 15 - - NE 1018,2 0,0
26.05.2018 14:00:00 17,7 14,2 22 12 - - NNE 1019,3 0,0
26.05.2018 13:00:00 16,7 14,2 22 12 - - NNE 1020,0 0,2
26.05.2018 12:00:00 16,9 14,0 24 13 - - NE 1020,5 0,0
26.05.2018 11:00:00 17,0 13,6 8 4 - - E 1020,7 0,0
26.05.2018 10:00:00 16,9 13,6 16 9 - - NE 1020,3 0,0
26.05.2018 09:00:00 15,5 13,1 18 10 - - NE 1020,4 0,0
26.05.2018 08:00:00 14,6 12,6 16 9 - - NNE 1020,5 0,0
26.05.2018 07:00:00 13,8 12,0 18 10 - - NNE 1020,5 0,0
26.05.2018 06:00:00 13,1 11,8 26 14 - - NE 1020,4 0,0
26.05.2018 05:00:00 13,1 11,5 24 13 - - NE 1020,3 0,0
26.05.2018 04:00:00 13,0 11,4 21 11 - - NNE 1020,5 0,0
26.05.2018 03:00:00 12,8 11,7 21 11 - - NNE 1020,4 0,0
26.05.2018 02:00:00 12,9 11,9 22 12 - - NE 1020,6 0,0
26.05.2018 01:00:00 13,2 12,4 18 10 - - NE 1020,5 0,0
26.05.2018 00:00:00 13,3 12,9 8 4 - - NE 1020,2 0,0
25.05.2018 23:00:00 13,3 12,9 15 8 - - ENE 1020,1 0,0
25.05.2018 22:00:00 13,2 13,0 11 6 - - E 1019,9 0,0
25.05.2018 21:00:00 13,5 13,1 15 8 - - E 1019,3 0,6
25.05.2018 20:00:00 14,3 13,5 18 10 - - NE 1018,8 0,0
25.05.2018 19:00:00 14,0 13,8 11 6 - - NNE 1018,6 0,2
25.05.2018 18:00:00 13,6 13,3 15 8 - - ENE 1018,6 0,4
25.05.2018 17:00:00 14,1 13,6 13 7 - - WSW 1019,0 1,6
25.05.2018 16:00:00 14,8 13,8 8 4 - - WNW 1019,4 0,8
25.05.2018 15:00:00 15,1 13,9 13 7 - - NNW 1019,5 0,8
25.05.2018 14:00:00 14,3 13,3 9 5 - - NNW 1019,6 1,6
25.05.2018 13:00:00 14,5 13,4 9 5 - - NNW 1019,8 0,4
25.05.2018 12:00:00 14,3 12,9 9 5 - - NNE 1019,9 0,6
25.05.2018 11:00:00 14,1 13,1 11 6 - - NNE 1020,1 1,2
25.05.2018 10:00:00 14,4 12,6 11 6 - - NE 1020,0 0,2
25.05.2018 09:00:00 13,3 12,4 2 1 - - E 1019,8 0,0
25.05.2018 08:00:00 13,7 12,6 9 5 - - ENE 1019,6 0,0
25.05.2018 07:00:00 14,6 11,6 11 6 - - N 1019,3 0,0
25.05.2018 06:00:00 14,6 11,3 11 6 - - NNW 1019,4 0,0
25.05.2018 05:00:00 15,0 11,1 15 8 - - N 1019,1 0,0
25.05.2018 04:00:00 14,5 11,6 16 9 - - NNW 1019,0 0,0
25.05.2018 03:00:00 13,8 12,0 4 2 - - W 1019,1 0,0
25.05.2018 02:00:00 14,0 12,2 8 4 - - NNW 1019,6 0,0
25.05.2018 01:00:00 13,9 12,5 15 8 - - NNW 1020,0 0,0
25.05.2018 00:00:00 13,4 12,6 15 8 - - NNW 1020,4 0,0
24.05.2018 23:00:00 12,9 12,0 11 6 - - WSW 1020,8 0,0
24.05.2018 22:00:00 12,9 11,9 5 3 - - W 1020,8 0,0
24.05.2018 21:00:00 13,2 12,0 4 2 - - WSW 1020,5 0,0
24.05.2018 20:00:00 13,1 12,1 4 2 - - S 1020,4 0,0
24.05.2018 19:00:00 12,9 12,1 9 5 - - SSE 1020,5 0,0
24.05.2018 18:00:00 12,6 11,9 9 5 - - SSE 1020,5 0,0
24.05.2018 17:00:00 12,3 11,7 16 9 - - SE 1020,5 0,4
24.05.2018 16:00:00 12,3 11,3 13 7 - - SE 1020,9 0,4
24.05.2018 15:00:00 13,4 10,2 9 5 - - S 1021,3 0,0
24.05.2018 14:00:00 13,8 11,1 9 5 - - S 1021,4 0,0
24.05.2018 13:00:00 13,7 10,8 11 6 - - SSE 1021,6 0,0
24.05.2018 12:00:00 13,7 10,9 9 5 - - S 1021,7 0,0
24.05.2018 11:00:00 14,0 10,8 5 3 - - SSE 1021,7 0,0
24.05.2018 10:00:00 12,8 10,7 8 4 - - SE 1022,1 0,0
24.05.2018 09:00:00 12,9 10,7 13 7 - - NE 1022,0 0,0
24.05.2018 08:00:00 13,1 10,1 13 7 - - NE 1021,7 0,0
24.05.2018 07:00:00 13,1 10,1 16 9 - - E 1021,9 0,0
24.05.2018 06:00:00 13,2 10,0 18 10 - - SE 1021,8 0,0
24.05.2018 05:00:00 13,6 10,2 15 8 - - ESE 1021,8 0,0
24.05.2018 04:00:00 14,3 10,1 16 9 - - E 1022,3 0,0
24.05.2018 03:00:00 15,2 9,7 4 2 - - ESE 1022,3 0,0
24.05.2018 02:00:00 16,4 9,5 15 8 - - NNE 1022,5 0,0
24.05.2018 01:00:00 16,7 9,5 18 10 - - NNE 1022,7 0,0
24.05.2018 00:00:00 16,3 10,4 18 10 - - NE 1022,9 0,0
23.05.2018 23:00:00 17,4 10,8 21 11 - - NNE 1023,0 0,0
23.05.2018 22:00:00 17,8 10,7 21 11 - - NE 1023,3 0,0
23.05.2018 21:00:00 17,2 11,4 11 6 - - N 1023,1 0,0
23.05.2018 20:00:00 17,8 9,8 2 1 - - SE 1023,1 0,0
23.05.2018 19:00:00 17,7 10,3 4 2 - - SSW 1023,0 0,0
23.05.2018 18:00:00 17,0 10,7 5 3 - - SW 1023,2 0,0
23.05.2018 17:00:00 16,3 10,5 5 3 - - SSW 1023,5 0,0
23.05.2018 16:00:00 15,9 10,9 5 3 - - SSW 1023,9 0,0
23.05.2018 15:00:00 15,3 9,8 5 3 - - SW 1024,2 0,0
23.05.2018 14:00:00 15,6 11,0 5 3 - - S 1024,7 0,0
23.05.2018 13:00:00 14,2 10,3 16 9 - - SSE 1024,8 0,0
23.05.2018 12:00:00 13,8 9,8 16 9 - - SSE 1025,1 0,0
23.05.2018 11:00:00 13,1 9,7 18 10 - - SE 1025,0 0,0
23.05.2018 10:00:00 12,4 9,1 21 11 - - SE 1024,9 0,0
23.05.2018 09:00:00 13,2 9,9 21 11 - - ESE 1024,7 0,0
23.05.2018 08:00:00 13,6 9,2 8 4 - - ESE 1024,3 0,0
23.05.2018 07:00:00 12,7 9,3 18 10 - - ENE 1023,9 0,0
23.05.2018 06:00:00 12,0 9,4 13 7 - - ENE 1023,4 0,0
23.05.2018 05:00:00 12,0 9,7 5 3 - - N 1023,2 0,0
23.05.2018 04:00:00 12,8 10,0 11 6 - - N 1023,1 0,0
23.05.2018 03:00:00 13,8 9,8 16 9 - - NE 1022,7 0,0
23.05.2018 02:00:00 14,4 9,6 16 9 - - NE 1022,8 0,0
23.05.2018 01:00:00 15,1 9,0 18 10 - - NNE 1022,7 0,0
23.05.2018 00:00:00 15,8 8,9 18 10 - - NNE 1022,3 0,0
22.05.2018 23:00:00 16,9 9,6 15 8 - - NNE 1021,7 0,0
22.05.2018 22:00:00 17,0 11,0 15 8 - - N 1021,2 0,0
22.05.2018 21:00:00 18,4 10,6 11 6 - - N 1020,2 0,0
22.05.2018 20:00:00 18,8 11,5 13 7 - - NE 1019,6 0,0
22.05.2018 19:00:00 20,2 9,0 9 5 - - NNE 1019,3 0,0
22.05.2018 18:00:00 20,4 10,9 4 2 - - NE 1019,1 0,0
22.05.2018 17:00:00 19,6 12,1 4 2 - - SW 1019,0 0,0
22.05.2018 16:00:00 18,7 12,0 11 6 - - SW 1018,9 0,0
22.05.2018 15:00:00 19,4 11,2 18 10 - - WSW 1019,0 0,0
22.05.2018 14:00:00 18,1 12,1 22 12 - - WSW 1019,0 0,0
22.05.2018 13:00:00 19,5 11,8 11 6 - - SSW 1019,0 0,0
22.05.2018 12:00:00 18,7 10,2 16 9 - - NE 1019,0 0,0
22.05.2018 11:00:00 18,1 12,0 13 7 - - NNW 1019,0 0,0
22.05.2018 10:00:00 15,1 10,7 18 10 - - NNW 1018,8 0,0
22.05.2018 09:00:00 14,2 10,1 16 9 - - NW 1018,8 0,0
22.05.2018 08:00:00 13,5 9,6 24 13 - - NNW 1018,3 0,0
22.05.2018 07:00:00 12,8 9,2 22 12 - - NNW 1017,8 0,0
22.05.2018 06:00:00 13,3 8,9 21 11 - - NNW 1017,1 0,0
22.05.2018 05:00:00 13,5 8,7 15 8 - - NNW 1017,4 0,0
22.05.2018 04:00:00 13,8 8,8 15 8 - - N 1017,2 0,0
22.05.2018 03:00:00 13,4 9,1 22 12 - - NNW 1017,4 0,0
22.05.2018 02:00:00 14,3 8,7 24 13 - - NNW 1017,3 0,0
22.05.2018 01:00:00 15,1 8,9 22 12 - - NNW 1017,0 0,0
22.05.2018 00:00:00 15,0 8,9 21 11 - - NNW 1017,2 0,0
21.05.2018 23:00:00 15,6 8,6 16 9 - - NNW 1017,0 0,0
21.05.2018 22:00:00 16,9 8,2 16 9 - - NNW 1016,8 0,0
21.05.2018 21:00:00 18,0 8,5 16 9 - - NNW 1016,5 0,0
21.05.2018 20:00:00 19,3 9,1 15 8 - - N 1016,4 0,0
21.05.2018 19:00:00 20,7 9,6 15 8 - - NW 1016,2 0,0
21.05.2018 18:00:00 15,8 12,1 13 7 - - SW 1016,2 0,0
21.05.2018 17:00:00 16,5 11,4 24 13 - - WSW 1016,3 0,0
21.05.2018 16:00:00 16,0 11,0 26 14 - - WSW 1016,7 0,0
21.05.2018 15:00:00 16,4 10,9 24 13 - - WSW 1017,0 0,0
21.05.2018 14:00:00 16,7 11,6 21 11 - - WSW 1017,1 0,0
21.05.2018 13:00:00 17,4 12,9 13 7 - - SW 1017,4 0,0
21.05.2018 12:00:00 16,5 12,8 13 7 - - SW 1017,8 0,0
21.05.2018 11:00:00 14,8 11,7 8 4 - - SSW 1018,2 0,0
21.05.2018 10:00:00 14,4 9,9 5 3 - - SSE 1018,3 0,0
21.05.2018 09:00:00 15,4 9,4 5 3 - - ENE 1018,0 0,0
21.05.2018 08:00:00 14,4 9,4 11 6 - - N 1018,1 0,0
21.05.2018 07:00:00 13,3 9,6 13 7 - - NNE 1018,1 0,0
21.05.2018 06:00:00 11,4 9,4 15 8 - - NNE 1018,2 0,0

tt = Température de l'air
td = dewpoint
ff = Vitesse du vent
fx = gusts
dd = Direction du vent
ppp = reduced air pressure
rr = Quantités de précipitations

stations d'obs. à proximité